Delray Beach, FL

4:29 PM EDT on May 25, 2015 (GMT -0400)
Palm Beach International | | Change Station
CLOSE
Current Station
Airport
Location: West Palm Beach,
Elevation: 20 ft
Nearby Weather Stations

Elev 20 ft 26.68 °N, 80.10 °W | Updated 11 minutes ago

Partly Cloudy
Partly Cloudy
85 °F
Feels Like 91 °F
N
17
Wind Variable Wind from ESE

Today
High -- | Low -- °F
--% Chance of Precip.
Yesterday
High -- | Low -- °F
Precip. -- in
6:29 AM 8:05 PM
Waxing Crescent, 51% visible
Pressure 30.16 in
Visibility 10.0 miles
Clouds Scattered Clouds 2200 ft
Mostly Cloudy 25000 ft
Heat Index 91 °F
Dew Point 73 °F
Humidity 67%
Rainfall 0.00 in
Snow Depth Not available.
UV 5 out of 12
Pollen 5.10 out of 12
Air Quality Not available.
Flu Activity Sporadic
SPECI KPBI 252018Z 12015KT 10SM SCT022TCU BKN250 29/23 A3016 RMK AO2 TCU SW CB DSNT NE T02940228

More Conditions Fewer Conditions

Pressure 30.16 in
Visibility 10.0 miles
Clouds Scattered Clouds 2200 ft
Mostly Cloudy 25000 ft
Heat Index 91 °F
Dew Point 73 °F
Humidity 67%
Rainfall 0.00 in
Snow Depth Not available.
UV 5 out of 12
Pollen 5.10 out of 12
Air Quality Not available.
Flu Activity Sporadic
SPECI KPBI 252018Z 12015KT 10SM SCT022TCU BKN250 29/23 A3016 RMK AO2 TCU SW CB DSNT NE T02940228

More Conditions Fewer Conditions

Nowcast | as of 2:45 PM EDT on May 25, 2015

Isolated to scattered moderate rain showers continue to push to the northwest across the area. A few embedded thunderstorms will also be possible through the remainder of the afternoon and into the early evening. The main threats will be occasional lightning and brief heavy downpours.

×

10-Day Weather Forecast

Almanac

Astronomy

May. 25, 2015 Rise Set
Actual Time
Civil Twilight
Nautical Twilight
Astronomical Twilight
Moon
Length of Visible Light
Length of Day
Tomorrow will be .
, % of the Moon is Illuminated

Today's Extremes

State Highs State Lows

Community

WunderPhotos

Upload Photos

1,824,119 photos uploaded!

WunderBlogs® & News

Nearby

Air Quality

  Air Quality AQ Index Pollutant
Not available.

Snow Depth

Station Depth Elevation

Earthquake Activity

City Distance Mag. Time & Date
Minimum magnitude displayed is 2.5.

Coastal Water Temperatures

Place Temperature

Stations

Nearby Weather Stations

Station Location Temp. Windchill Dew Point Humidity Wind Precip. Elev Updated Type